Time;durP1;ratioP1;P1;durP2;ratioP2;P2;SDS_P1;SDS_P2;PMS_P1;PMS_P2;Temp;Humidity;BMP_temperature;BMP_pressure;BME280_temperature;BME280_humidity;BME280_pressure;Samples;Min_cycle;Max_cycle;Signal;HPM_P1;HPM_P2
2021/01/18 00:00:35;;;;;;;5.20;4.70;;;5.00;51.90;;;;;;5010508;28;20605;-67
2021/01/18 00:03:05;;;;;;;6.07;5.47;;;5.00;51.90;;;;;;5015926;28;20319;-67
2021/01/18 00:05:30;;;;;;;6.00;5.47;;;5.00;52.50;;;;;;5016825;28;20475;-66
2021/01/18 00:07:56;;;;;;;4.57;4.17;;;5.20;53.10;;;;;;5017151;28;20541;-67
2021/01/18 00:10:24;;;;;;;6.03;5.30;;;5.10;51.60;;;;;;5017323;28;20282;-67
2021/01/18 00:12:53;;;;;;;5.20;4.80;;;5.10;51.90;;;;;;5016878;28;21432;-67
2021/01/18 00:15:22;;;;;;;4.87;4.50;;;5.00;52.00;;;;;;5016467;28;20451;-67
2021/01/18 00:17:47;;;;;;;5.10;4.70;;;5.10;52.00;;;;;;5018615;28;20447;-68
2021/01/18 00:20:16;;;;;;;4.87;4.37;;;5.20;51.30;;;;;;5020100;28;21225;-68
2021/01/18 00:22:42;;;;;;;5.43;4.90;;;5.20;51.20;;;;;;5020547;28;20235;-66
2021/01/18 00:25:13;;;;;;;6.20;5.23;;;5.20;51.30;;;;;;5020830;28;21228;-67
2021/01/18 00:27:40;;;;;;;4.90;4.40;;;5.10;51.50;;;;;;5020402;28;20447;-67
2021/01/18 00:30:14;;;;;;;5.40;4.90;;;5.10;51.50;;;;;;5021247;28;21376;-67
2021/01/18 00:32:40;;;;;;;5.10;4.70;;;5.10;51.30;;;;;;5021162;28;20450;-67
2021/01/18 00:35:11;;;;;;;5.80;4.47;;;5.10;51.50;;;;;;5017479;28;20652;-67
2021/01/18 00:37:44;;;;;;;5.20;4.70;;;5.10;51.70;;;;;;5020266;28;20920;-66
2021/01/18 00:40:13;;;;;;;4.23;3.93;;;5.10;51.60;;;;;;5021169;28;20607;-66
2021/01/18 00:42:40;;;;;;;4.13;3.87;;;5.20;51.00;;;;;;5020444;28;20469;-67
2021/01/18 00:45:07;;;;;;;5.43;3.63;;;5.30;50.20;;;;;;5027635;28;20435;-66
2021/01/18 00:47:38;;;;;;;3.53;3.33;;;5.20;50.40;;;;;;5034661;28;20557;-65
2021/01/18 00:50:04;;;;;;;4.80;4.40;;;5.10;50.70;;;;;;5033280;28;20493;-65
2021/01/18 00:52:30;;;;;;;4.57;4.27;;;5.20;50.90;;;;;;5033333;28;20506;-65
2021/01/18 00:54:55;;;;;;;3.80;3.50;;;5.20;51.20;;;;;;5034295;28;20755;-65
2021/01/18 00:57:21;;;;;;;4.13;3.83;;;5.20;50.90;;;;;;5034290;28;20594;-65
2021/01/18 00:59:46;;;;;;;4.37;3.97;;;5.20;50.50;;;;;;5034360;28;20183;-66
2021/01/18 01:02:12;;;;;;;3.87;3.57;;;5.10;51.00;;;;;;5034135;28;20233;-66
2021/01/18 01:04:37;;;;;;;4.10;3.80;;;5.10;50.50;;;;;;5034136;28;20254;-66
2021/01/18 01:07:03;;;;;;;4.40;4.10;;;5.20;51.50;;;;;;5034079;28;20192;-66
2021/01/18 01:09:29;;;;;;;4.80;4.20;;;5.30;51.00;;;;;;5034232;28;20188;-66
2021/01/18 01:11:54;;;;;;;3.90;3.60;;;5.40;50.70;;;;;;5034275;28;20412;-66
2021/01/18 01:14:20;;;;;;;3.80;3.50;;;5.40;50.10;;;;;;5034265;28;20603;-65
2021/01/18 01:16:45;;;;;;;3.60;3.37;;;5.10;50.00;;;;;;5033959;28;20199;-65
2021/01/18 01:19:11;;;;;;;2.90;2.70;;;5.00;50.60;;;;;;5033880;28;20183;-65
2021/01/18 01:21:37;;;;;;;3.83;3.53;;;5.00;50.50;;;;;;5034263;28;20245;-65
2021/01/18 01:24:03;;;;;;;3.30;3.10;;;5.20;50.80;;;;;;5033763;28;20455;-65
2021/01/18 01:26:28;;;;;;;3.83;3.50;;;5.20;50.30;;;;;;5034054;28;20530;-66
2021/01/18 01:28:54;;;;;;;3.90;3.50;;;5.30;50.50;;;;;;5033614;28;20560;-66
2021/01/18 01:31:20;;;;;;;3.50;3.30;;;5.20;51.50;;;;;;5033786;28;20218;-66
2021/01/18 01:33:45;;;;;;;4.00;3.20;;;5.10;51.90;;;;;;5033860;28;20659;-65
2021/01/18 01:36:11;;;;;;;3.70;3.43;;;5.20;52.30;;;;;;5033689;28;20189;-66
2021/01/18 01:38:36;;;;;;;4.17;3.77;;;5.20;52.00;;;;;;5033767;28;20177;-65
2021/01/18 01:41:02;;;;;;;3.20;2.93;;;5.20;52.00;;;;;;5033932;28;20174;-66
2021/01/18 01:43:28;;;;;;;3.20;3.00;;;5.10;51.30;;;;;;5033647;28;20244;-66
2021/01/18 01:45:53;;;;;;;3.20;3.00;;;5.20;50.30;;;;;;5033536;28;20419;-65
2021/01/18 01:48:19;;;;;;;3.20;3.00;;;5.00;50.60;;;;;;5033335;28;20257;-66
2021/01/18 01:50:45;;;;;;;2.90;2.70;;;5.10;50.50;;;;;;5033419;28;20176;-65
2021/01/18 01:53:29;;;;;;;3.53;3.33;;;5.10;49.20;;;;;;5033546;28;20258;-65
2021/01/18 01:55:55;;;;;;;3.83;3.47;;;4.80;50.20;;;;;;5033443;28;20419;-65
2021/01/18 01:58:22;;;;;;;3.27;3.07;;;5.00;51.40;;;;;;5033304;28;20404;-66
2021/01/18 02:00:48;;;;;;;3.17;2.83;;;4.80;50.90;;;;;;5033239;28;20457;-66
2021/01/18 02:03:46;;;;;;;3.43;3.23;;;4.80;51.70;;;;;;5033188;28;20451;-65
2021/01/18 02:06:12;;;;;;;5.20;3.50;;;4.90;52.50;;;;;;5028755;28;20447;-65
2021/01/18 02:08:38;;;;;;;3.50;3.30;;;5.00;51.30;;;;;;5033203;28;20498;-65
2021/01/18 02:11:05;;;;;;;3.07;2.87;;;5.00;50.80;;;;;;5033301;28;20256;-65
2021/01/18 02:13:49;;;;;;;2.90;2.77;;;5.00;50.30;;;;;;5032966;28;20494;-66
2021/01/18 02:16:33;;;;;;;3.03;2.83;;;5.10;51.10;;;;;;5032956;28;20437;-65
2021/01/18 02:19:32;;;;;;;3.40;3.20;;;5.10;50.30;;;;;;5033000;28;20461;-66
2021/01/18 02:22:16;;;;;;;3.03;2.83;;;5.10;50.00;;;;;;5033034;28;20399;-66
2021/01/18 02:24:58;;;;;;;3.27;3.03;;;5.00;50.20;;;;;;5032934;28;20882;-65
2021/01/18 02:27:43;;;;;;;3.80;3.60;;;4.80;51.00;;;;;;5032902;28;20411;-66
2021/01/18 02:30:24;;;;;;;3.50;3.30;;;5.00;51.50;;;;;;5033069;28;20410;-65
2021/01/18 02:33:08;;;;;;;3.07;2.87;;;5.10;51.40;;;;;;5033134;28;20425;-66
2021/01/18 02:36:04;;;;;;;3.50;3.30;;;5.10;50.40;;;;;;5032859;28;20446;-66
2021/01/18 02:38:51;;;;;;;3.70;3.40;;;5.10;51.00;;;;;;5032945;28;20491;-65
2021/01/18 02:41:29;;;;;;;3.80;3.50;;;5.20;50.10;;;;;;5032237;28;20933;-65
2021/01/18 02:44:00;;;;;;;3.90;3.70;;;5.10;50.00;;;;;;5032932;28;20463;-66
2021/01/18 02:46:28;;;;;;;3.70;3.50;;;5.10;50.40;;;;;;5033050;28;20423;-66
2021/01/18 02:48:55;;;;;;;4.30;4.00;;;5.10;50.00;;;;;;5032496;28;20901;-66
2021/01/18 02:51:23;;;;;;;4.23;3.83;;;5.20;49.70;;;;;;5032486;28;20399;-66
2021/01/18 02:53:59;;;;;;;4.40;4.03;;;5.10;50.30;;;;;;5032418;28;20418;-66
2021/01/18 02:56:27;;;;;;;5.20;4.80;;;5.10;50.10;;;;;;5032497;28;20438;-66
2021/01/18 02:58:55;;;;;;;5.10;4.60;;;5.20;49.80;;;;;;5032247;28;20498;-65
2021/01/18 03:01:50;;;;;;;5.37;4.97;;;5.10;50.30;;;;;;5032296;28;20404;-66
2021/01/18 03:04:41;;;;;;;5.90;5.30;;;5.00;50.90;;;;;;5022014;28;20470;-66
2021/01/18 03:07:17;;;;;;;5.37;4.93;;;5.10;50.70;;;;;;5031930;28;20418;-66
2021/01/18 03:10:06;;;;;;;5.97;5.13;;;5.20;50.70;;;;;;5032109;28;20478;-66
2021/01/18 03:12:41;;;;;;;5.73;5.33;;;5.20;50.30;;;;;;5032259;28;20481;-65
2021/01/18 03:15:11;;;;;;;6.10;5.60;;;5.20;50.20;;;;;;5031995;28;20948;-65
2021/01/18 03:17:39;;;;;;;7.00;5.90;;;5.10;50.20;;;;;;5031934;28;20411;-66
2021/01/18 03:20:06;;;;;;;6.37;5.77;;;5.00;49.90;;;;;;5031865;28;20416;-66
2021/01/18 03:22:32;;;;;;;7.13;6.20;;;5.10;50.50;;;;;;5031717;28;20485;-66
2021/01/18 03:25:03;;;;;;;5.60;5.10;;;5.10;50.50;;;;;;5031723;28;20427;-65
2021/01/18 03:27:29;;;;;;;6.50;6.00;;;5.20;50.60;;;;;;5032086;28;20496;-65
2021/01/18 03:29:54;;;;;;;7.03;6.40;;;5.20;50.00;;;;;;5031772;28;20902;-65
2021/01/18 03:32:20;;;;;;;6.63;6.13;;;5.00;50.30;;;;;;5031732;28;20411;-65
2021/01/18 03:34:46;;;;;;;6.03;5.43;;;5.00;50.80;;;;;;5031486;28;20180;-66
2021/01/18 03:37:11;;;;;;;7.13;6.40;;;4.90;51.30;;;;;;5031642;28;20306;-65
2021/01/18 03:39:37;;;;;;;8.00;6.23;;;4.80;51.30;;;;;;5031553;28;20419;-66
2021/01/18 03:42:02;;;;;;;7.23;6.70;;;4.80;51.40;;;;;;5031440;28;20699;-66
2021/01/18 03:44:28;;;;;;;5.93;5.43;;;4.80;51.80;;;;;;5031338;28;20207;-65
2021/01/18 03:46:53;;;;;;;8.47;7.10;;;5.00;51.20;;;;;;5031355;28;20263;-66
2021/01/18 03:49:19;;;;;;;6.87;6.30;;;5.00;50.30;;;;;;5031270;28;20268;-66
2021/01/18 03:51:45;;;;;;;6.53;5.90;;;5.10;50.70;;;;;;5031429;28;20169;-66
2021/01/18 03:54:10;;;;;;;6.97;6.37;;;4.90;50.60;;;;;;5031378;28;20255;-65
2021/01/18 03:56:40;;;;;;;6.07;5.47;;;4.90;51.60;;;;;;5031234;28;20207;-65
2021/01/18 03:59:06;;;;;;;6.90;6.27;;;5.00;50.60;;;;;;5031187;28;20180;-65
2021/01/18 04:01:42;;;;;;;5.83;5.43;;;5.00;51.00;;;;;;5031043;28;20419;-66
2021/01/18 04:04:07;;;;;;;6.00;5.50;;;5.00;50.50;;;;;;5031513;28;20643;-65
2021/01/18 04:06:37;;;;;;;5.93;5.37;;;4.90;50.70;;;;;;5031191;28;20433;-66
2021/01/18 04:09:04;;;;;;;6.13;5.70;;;4.70;51.20;;;;;;5031341;28;20181;-65
2021/01/18 04:11:30;;;;;;;7.17;6.57;;;4.80;52.00;;;;;;5031284;28;20529;-65
2021/01/18 04:13:56;;;;;;;9.10;5.60;;;4.80;51.30;;;;;;5031176;28;20835;-66
2021/01/18 04:16:21;;;;;;;6.37;5.87;;;5.00;50.20;;;;;;5031199;28;20438;-66
2021/01/18 04:18:47;;;;;;;8.70;7.80;;;5.00;49.90;;;;;;5031579;28;20826;-65
2021/01/18 04:21:15;;;;;;;7.30;6.70;;;4.90;50.40;;;;;;5031544;28;20180;-65
2021/01/18 04:23:41;;;;;;;6.53;5.93;;;5.00;50.60;;;;;;5030783;28;20262;-65
2021/01/18 04:26:06;;;;;;;7.57;6.60;;;5.10;50.30;;;;;;5030847;28;20431;-65
2021/01/18 04:28:32;;;;;;;7.70;7.00;;;5.20;51.30;;;;;;5030939;28;20177;-65
2021/01/18 04:30:57;;;;;;;6.87;6.27;;;5.20;50.20;;;;;;5030977;28;20192;-65
2021/01/18 04:33:26;;;;;;;6.77;6.17;;;5.30;50.60;;;;;;5031033;28;20223;-65
2021/01/18 04:35:54;;;;;;;7.77;7.07;;;5.30;50.20;;;;;;5030911;28;20204;-65
2021/01/18 04:38:19;;;;;;;7.70;6.53;;;5.30;49.30;;;;;;5030786;28;20414;-65
2021/01/18 04:40:45;;;;;;;6.43;5.93;;;5.30;49.60;;;;;;5030794;28;20905;-66
2021/01/18 04:43:13;;;;;;;5.80;5.20;;;5.30;48.80;;;;;;5030582;28;20232;-66
2021/01/18 04:45:40;;;;;;;6.80;6.20;;;5.30;48.50;;;;;;5030624;28;20644;-66
2021/01/18 04:48:06;;;;;;;7.10;6.60;;;5.20;47.70;;;;;;5030457;28;20420;-65
2021/01/18 04:50:31;;;;;;;5.77;5.27;;;5.20;48.50;;;;;;5030496;28;20411;-65
2021/01/18 04:53:01;;;;;;;6.40;5.80;;;5.20;47.90;;;;;;5030636;28;20913;-66
2021/01/18 04:55:28;;;;;;;5.60;5.20;;;5.10;48.00;;;;;;5030446;28;20200;-65
2021/01/18 04:58:04;;;;;;;6.37;5.77;;;5.10;48.30;;;;;;5030219;28;20411;-65
2021/01/18 05:00:42;;;;;;;6.83;6.20;;;4.80;48.20;;;;;;5030449;28;20411;-65
2021/01/18 05:03:09;;;;;;;9.50;5.87;;;4.80;49.50;;;;;;5031578;28;20516;-66
2021/01/18 05:06:05;;;;;;;6.70;6.10;;;4.90;49.80;;;;;;5034062;28;20434;-66
2021/01/18 05:09:01;;;;;;;6.30;5.70;;;5.00;49.20;;;;;;5034194;28;20400;-65
2021/01/18 05:11:27;;;;;;;5.07;4.67;;;4.80;49.20;;;;;;5034082;28;20400;-66
2021/01/18 05:14:00;;;;;;;11.13;8.97;;;4.80;49.70;;;;;;5034088;28;20481;-65
2021/01/18 05:16:37;;;;;;;7.03;6.43;;;4.90;50.80;;;;;;5033931;28;20424;-65
2021/01/18 05:19:11;;;;;;;5.97;5.40;;;4.90;50.80;;;;;;5033979;28;20470;-66
2021/01/18 05:21:42;;;;;;;9.13;5.70;;;4.90;51.00;;;;;;5034068;28;20976;-65
2021/01/18 05:24:08;;;;;;;7.10;6.50;;;5.00;50.60;;;;;;5033863;28;20462;-65
2021/01/18 05:26:34;;;;;;;7.27;6.57;;;4.90;49.10;;;;;;5033726;28;20432;-65
2021/01/18 05:29:00;;;;;;;8.37;6.70;;;4.90;49.00;;;;;;5033659;28;20430;-66
2021/01/18 05:31:26;;;;;;;6.97;5.97;;;4.80;49.40;;;;;;5033227;28;20405;-66
2021/01/18 05:34:03;;;;;;;6.60;6.00;;;4.80;49.50;;;;;;5033147;28;20180;-66
2021/01/18 05:36:40;;;;;;;6.83;6.23;;;4.70;49.10;;;;;;5033415;28;20211;-65
2021/01/18 05:39:14;;;;;;;8.57;7.70;;;4.60;49.90;;;;;;5033668;28;20445;-65
2021/01/18 05:41:41;;;;;;;7.20;6.37;;;4.50;50.00;;;;;;5032973;28;20419;-65
2021/01/18 05:44:07;;;;;;;8.20;6.83;;;4.70;49.80;;;;;;5033211;28;20827;-65
2021/01/18 05:46:37;;;;;;;6.17;5.47;;;4.90;49.10;;;;;;5033340;28;20510;-67
2021/01/18 05:49:15;;;;;;;6.10;5.60;;;4.80;49.30;;;;;;5033008;28;20508;-67
2021/01/18 05:51:41;;;;;;;7.33;6.57;;;5.00;48.20;;;;;;5032517;28;20410;-66
2021/01/18 05:54:11;;;;;;;8.30;6.53;;;5.00;48.20;;;;;;5033165;28;20415;-66
2021/01/18 05:56:44;;;;;;;7.97;6.70;;;4.90;48.20;;;;;;5033095;28;20428;-67
2021/01/18 05:59:17;;;;;;;7.60;6.77;;;4.80;48.10;;;;;;5033054;28;20411;-67
2021/01/18 06:01:43;;;;;;;9.10;8.07;;;4.90;49.00;;;;;;5033010;28;20893;-67
2021/01/18 06:04:16;;;;;;;12.30;9.40;;;4.90;49.10;;;;;;5032830;28;20542;-67
2021/01/18 06:06:44;;;;;;;10.20;7.50;;;4.80;48.80;;;;;;5032766;28;20431;-67
2021/01/18 06:09:09;;;;;;;7.00;5.67;;;4.80;48.90;;;;;;5032709;28;20407;-67
2021/01/18 06:11:35;;;;;;;6.50;5.93;;;4.70;48.90;;;;;;5032866;28;20461;-68
2021/01/18 06:14:03;;;;;;;7.93;6.00;;;4.80;48.60;;;;;;5032385;28;20177;-67
2021/01/18 06:16:30;;;;;;;7.03;6.33;;;4.70;49.50;;;;;;5032245;28;20554;-69
2021/01/18 06:19:10;;;;;;;7.33;6.20;;;4.60;49.20;;;;;;5032495;28;20416;-67
2021/01/18 06:21:37;;;;;;;6.27;5.77;;;4.70;50.40;;;;;;5032745;28;20395;-67
2021/01/18 06:24:15;;;;;;;8.60;6.40;;;4.70;49.30;;;;;;5032232;28;20469;-67
2021/01/18 06:26:41;;;;;;;6.90;5.47;;;4.70;50.20;;;;;;5032302;28;20500;-67
2021/01/18 06:29:07;;;;;;;7.80;5.77;;;4.70;50.10;;;;;;5032237;28;20404;-67
2021/01/18 06:31:45;;;;;;;6.60;6.00;;;4.80;50.40;;;;;;5032502;28;20272;-67
2021/01/18 06:34:11;;;;;;;9.73;6.07;;;4.80;48.90;;;;;;5032252;28;20203;-67
2021/01/18 06:36:46;;;;;;;7.67;6.97;;;4.70;48.90;;;;;;5032140;28;21017;-67
2021/01/18 06:39:13;;;;;;;6.50;6.00;;;4.90;50.20;;;;;;5031803;28;20415;-67
2021/01/18 06:41:38;;;;;;;8.30;6.83;;;4.80;48.20;;;;;;5031951;28;20412;-67
2021/01/18 06:44:05;;;;;;;5.80;5.40;;;4.60;48.60;;;;;;5031911;28;20461;-67
2021/01/18 06:46:36;;;;;;;8.47;7.47;;;4.70;49.40;;;;;;5031893;28;20611;-67
2021/01/18 06:49:03;;;;;;;11.47;7.33;;;4.70;49.70;;;;;;5031965;28;20448;-67
2021/01/18 06:51:31;;;;;;;8.47;7.00;;;4.70;48.90;;;;;;5032225;28;20929;-67
2021/01/18 06:53:58;;;;;;;6.63;6.00;;;4.70;48.80;;;;;;5031913;28;20477;-67
2021/01/18 06:56:49;;;;;;;8.50;5.67;;;4.70;49.60;;;;;;5032007;28;20427;-67
2021/01/18 06:59:51;;;;;;;9.87;7.33;;;4.70;48.70;;;;;;5031664;28;20767;-67
2021/01/18 07:02:19;;;;;;;8.23;6.20;;;4.80;49.10;;;;;;5031754;28;20409;-67
2021/01/18 07:04:47;;;;;;;8.17;5.80;;;4.90;49.70;;;;;;5031554;28;20470;-67
2021/01/18 07:07:27;;;;;;;7.27;6.00;;;5.00;49.90;;;;;;5031404;28;20403;-67
2021/01/18 07:10:00;;;;;;;5.80;5.30;;;5.00;48.90;;;;;;5031730;28;20407;-67
2021/01/18 07:12:26;;;;;;;7.72;5.53;;;4.90;48.20;;;;;;5030764;28;20405;-67
2021/01/18 07:15:04;;;;;;;6.50;5.67;;;4.80;48.10;;;;;;5021621;28;20181;-66
2021/01/18 07:17:43;;;;;;;7.27;6.57;;;4.80;48.10;;;;;;5021648;28;20421;-67
2021/01/18 07:20:26;;;;;;;7.43;5.30;;;4.90;47.40;;;;;;5028029;28;21156;-64
2021/01/18 07:22:56;;;;;;;6.53;5.60;;;4.90;47.50;;;;;;5011657;28;20463;-65
2021/01/18 07:25:23;;;;;;;6.17;5.57;;;4.90;47.40;;;;;;5011577;28;20511;-66
2021/01/18 07:27:51;;;;;;;7.90;5.17;;;5.00;47.00;;;;;;5011105;28;20405;-66
2021/01/18 07:30:17;;;;;;;7.53;5.20;;;4.90;47.00;;;;;;5011526;28;20408;-66
2021/01/18 07:32:43;;;;;;;6.37;5.50;;;4.80;47.40;;;;;;5011494;28;20416;-65
2021/01/18 07:35:10;;;;;;;6.23;5.60;;;4.60;47.90;;;;;;5011521;28;20795;-66
2021/01/18 07:37:36;;;;;;;7.03;5.40;;;4.50;48.30;;;;;;5011611;28;20543;-67
2021/01/18 07:40:12;;;;;;;6.10;5.60;;;4.70;48.00;;;;;;5024977;28;20469;-66
2021/01/18 07:42:39;;;;;;;8.60;6.20;;;4.80;47.30;;;;;;5031043;28;20234;-66
2021/01/18 07:45:14;;;;;;;6.57;5.97;;;4.80;47.90;;;;;;5030938;28;20431;-65
2021/01/18 07:47:57;;;;;;;5.47;5.00;;;4.80;47.60;;;;;;5031544;28;20975;-66
2021/01/18 07:50:29;;;;;;;7.70;5.60;;;4.70;46.90;;;;;;5030918;28;20503;-66
2021/01/18 07:52:59;;;;;;;8.57;5.57;;;4.70;47.50;;;;;;5030917;28;20481;-67
2021/01/18 07:55:25;;;;;;;8.30;6.07;;;4.80;48.00;;;;;;5030882;28;20997;-66
2021/01/18 07:57:50;;;;;;;6.20;5.67;;;4.70;47.50;;;;;;5030693;28;20494;-65
2021/01/18 08:00:19;;;;;;;5.10;4.60;;;4.60;47.50;;;;;;5030895;28;20458;-66
2021/01/18 08:02:52;;;;;;;6.00;4.50;;;4.70;47.50;;;;;;5030728;28;20226;-67
2021/01/18 08:05:32;;;;;;;5.70;5.03;;;4.90;48.00;;;;;;5030819;28;20462;-67
2021/01/18 08:08:18;;;;;;;8.10;5.30;;;4.80;46.70;;;;;;5030709;28;20411;-65
2021/01/18 08:10:59;;;;;;;6.67;5.00;;;4.90;46.90;;;;;;5030720;28;20913;-66
2021/01/18 08:13:30;;;;;;;5.63;5.20;;;4.60;47.00;;;;;;5030825;28;20415;-66
2021/01/18 08:15:57;;;;;;;5.90;4.80;;;4.70;47.80;;;;;;5030722;28;21064;-66
2021/01/18 08:18:29;;;;;;;4.90;4.40;;;4.80;47.00;;;;;;5030618;28;20473;-66
2021/01/18 08:20:55;;;;;;;6.53;5.67;;;5.00;47.20;;;;;;5030759;28;20407;-67
2021/01/18 08:23:43;;;;;;;7.10;4.43;;;5.10;46.50;;;;;;5030157;28;20944;-67
2021/01/18 08:26:10;;;;;;;4.50;4.20;;;5.10;46.30;;;;;;5030308;28;20596;-66
2021/01/18 08:28:36;;;;;;;6.73;4.40;;;4.90;45.60;;;;;;5030459;28;20945;-66
2021/01/18 08:31:03;;;;;;;5.63;4.70;;;4.90;46.40;;;;;;5030592;28;20404;-66
2021/01/18 08:33:29;;;;;;;5.00;4.50;;;4.70;46.90;;;;;;5030576;28;20995;-66
2021/01/18 08:35:56;;;;;;;8.23;4.60;;;4.80;46.50;;;;;;5030339;28;20427;-66
2021/01/18 08:38:30;;;;;;;4.63;4.33;;;4.90;46.80;;;;;;5031680;28;20423;-67
2021/01/18 08:41:08;;;;;;;4.90;4.40;;;5.00;46.60;;;;;;5034444;28;20462;-66
2021/01/18 08:43:49;;;;;;;4.70;4.30;;;5.20;46.20;;;;;;5034416;28;20459;-65
2021/01/18 08:46:34;;;;;;;4.77;4.30;;;5.30;46.90;;;;;;5034407;28;20430;-66
2021/01/18 08:49:26;;;;;;;4.67;4.27;;;5.20;45.50;;;;;;5034003;28;20770;-65
2021/01/18 08:51:52;;;;;;;4.30;3.83;;;5.30;45.10;;;;;;5034478;28;20408;-66
2021/01/18 08:54:31;;;;;;;5.50;5.00;;;5.20;46.60;;;;;;5034218;28;21127;-67
2021/01/18 08:57:19;;;;;;;4.67;4.30;;;5.20;45.40;;;;;;5034039;28;20419;-64
2021/01/18 08:59:46;;;;;;;6.83;5.40;;;5.20;46.70;;;;;;5034008;28;20495;-65
2021/01/18 09:02:16;;;;;;;6.33;4.63;;;5.10;47.00;;;;;;5034324;28;20407;-64
2021/01/18 09:04:42;;;;;;;5.73;4.20;;;5.20;45.80;;;;;;5033886;28;20473;-66
2021/01/18 09:07:09;;;;;;;6.90;4.27;;;5.40;45.70;;;;;;5033988;28;20402;-66
2021/01/18 09:09:38;;;;;;;6.60;4.73;;;5.50;44.70;;;;;;5014218;28;20250;-65
2021/01/18 09:12:07;;;;;;;4.80;4.40;;;5.40;45.80;;;;;;5033957;28;20779;-66
2021/01/18 09:14:32;;;;;;;4.80;4.40;;;5.50;45.60;;;;;;5034093;28;20395;-65
2021/01/18 09:17:10;;;;;;;6.00;4.63;;;5.50;44.70;;;;;;5033894;28;20431;-65
2021/01/18 09:19:54;;;;;;;6.10;4.63;;;5.50;45.40;;;;;;5033951;28;20179;-65
2021/01/18 09:22:21;;;;;;;5.67;5.23;;;5.60;45.00;;;;;;5033864;28;20409;-65
2021/01/18 09:24:49;;;;;;;14.90;13.47;;;5.60;45.60;;;;;;5033467;28;20461;-67
2021/01/18 09:27:15;;;;;;;8.30;7.17;;;5.60;45.40;;;;;;5033482;28;20408;-67
2021/01/18 09:29:57;;;;;;;5.97;5.40;;;5.60;45.30;;;;;;5033532;28;20420;-66
2021/01/18 09:32:23;;;;;;;4.93;4.53;;;5.60;45.70;;;;;;5033652;28;21138;-66
2021/01/18 09:35:06;;;;;;;5.77;5.20;;;5.70;45.40;;;;;;5033228;28;20457;-66
2021/01/18 09:37:31;;;;;;;4.97;4.47;;;5.50;46.20;;;;;;5033233;28;20180;-66
2021/01/18 09:39:57;;;;;;;5.30;4.70;;;5.70;46.20;;;;;;5033336;28;20422;-66
2021/01/18 09:42:25;;;;;;;6.40;4.50;;;5.90;45.20;;;;;;5033330;28;20178;-66
2021/01/18 09:44:51;;;;;;;6.93;4.57;;;6.00;46.50;;;;;;5032978;28;20203;-66
2021/01/18 09:47:18;;;;;;;4.80;4.40;;;6.10;45.40;;;;;;5033045;28;20414;-65
2021/01/18 09:49:44;;;;;;;6.67;5.20;;;6.00;44.80;;;;;;5032747;28;20416;-68
2021/01/18 09:52:10;;;;;;;6.50;4.67;;;6.00;45.70;;;;;;5033147;28;20421;-66
2021/01/18 09:54:39;;;;;;;4.93;4.50;;;5.90;45.20;;;;;;5033087;28;20185;-67
2021/01/18 09:57:14;;;;;;;4.23;3.93;;;5.90;45.50;;;;;;5032827;28;20521;-65
2021/01/18 09:59:42;;;;;;;5.23;4.80;;;5.80;45.70;;;;;;5033167;28;20449;-66
2021/01/18 10:02:12;;;;;;;5.27;4.10;;;6.00;45.50;;;;;;5032678;28;20418;-68
2021/01/18 10:04:39;;;;;;;4.37;4.07;;;5.90;44.80;;;;;;5032837;28;20458;-66
2021/01/18 10:07:09;;;;;;;5.33;3.80;;;6.00;45.30;;;;;;5032884;28;20465;-66
2021/01/18 10:09:35;;;;;;;4.83;4.43;;;5.90;44.70;;;;;;5032625;28;20811;-65
2021/01/18 10:12:03;;;;;;;6.80;6.20;;;5.60;45.00;;;;;;5032694;28;20453;-66
2021/01/18 10:14:29;;;;;;;5.37;4.97;;;5.80;45.40;;;;;;5032651;28;20486;-64
2021/01/18 10:17:09;;;;;;;7.03;5.13;;;5.90;45.80;;;;;;5032584;28;20436;-67
2021/01/18 10:19:39;;;;;;;6.90;4.77;;;5.80;45.90;;;;;;5032487;28;20187;-67
2021/01/18 10:22:16;;;;;;;3.93;3.63;;;5.90;45.60;;;;;;5032541;28;20413;-66
2021/01/18 10:24:52;;;;;;;6.17;5.67;;;5.70;45.60;;;;;;5032169;28;20461;-67
2021/01/18 10:27:24;;;;;;;4.70;4.30;;;5.70;45.70;;;;;;5032282;28;20439;-66
2021/01/18 10:30:05;;;;;;;5.40;4.17;;;5.80;45.60;;;;;;5032499;28;20407;-66
2021/01/18 10:32:58;;;;;;;4.70;4.30;;;5.70;45.80;;;;;;5032365;28;20412;-66
2021/01/18 10:35:32;;;;;;;7.07;5.03;;;5.90;46.30;;;;;;5029747;28;20448;-66
2021/01/18 10:38:11;;;;;;;7.63;4.07;;;5.90;45.70;;;;;;5032237;28;20782;-65
2021/01/18 10:40:37;;;;;;;5.87;4.70;;;5.90;45.80;;;;;;5032072;28;20512;-65
2021/01/18 10:43:03;;;;;;;9.63;5.90;;;6.00;45.40;;;;;;5032103;28;20546;-65
2021/01/18 10:45:29;;;;;;;5.00;4.60;;;5.80;45.60;;;;;;5032014;28;20197;-65
2021/01/18 10:48:01;;;;;;;5.10;4.63;;;5.70;46.20;;;;;;5031926;28;20491;-65
2021/01/18 10:50:30;;;;;;;5.80;4.70;;;5.90;46.40;;;;;;5032102;28;20481;-66
2021/01/18 10:53:04;;;;;;;4.43;4.03;;;6.00;45.50;;;;;;5032106;28;20538;-65
2021/01/18 10:55:29;;;;;;;4.87;4.37;;;6.00;44.70;;;;;;5032245;28;20463;-66
2021/01/18 10:57:55;;;;;;;7.50;4.50;;;6.10;46.10;;;;;;5032282;28;20442;-66
2021/01/18 11:00:28;;;;;;;5.40;4.37;;;6.10;45.20;;;;;;5030377;28;20203;-65
2021/01/18 11:03:03;;;;;;;5.03;4.53;;;6.20;45.10;;;;;;5012047;28;20165;-64
2021/01/18 11:05:39;;;;;;;5.37;5.00;;;5.80;45.60;;;;;;5012155;28;20424;-64
2021/01/18 11:08:07;;;;;;;4.60;4.30;;;5.70;46.20;;;;;;5013967;28;20401;-65
2021/01/18 11:10:37;;;;;;;5.23;4.83;;;5.80;46.40;;;;;;5031714;28;20411;-65
2021/01/18 11:13:08;;;;;;;8.23;4.90;;;5.80;46.20;;;;;;5030553;28;20759;-65
2021/01/18 11:15:37;;;;;;;5.30;4.80;;;6.00;46.10;;;;;;5031387;28;20467;-65
2021/01/18 11:18:03;;;;;;;5.00;4.50;;;6.10;46.30;;;;;;5031403;28;20545;-65
2021/01/18 11:20:30;;;;;;;4.40;4.00;;;6.10;45.70;;;;;;5031543;28;20418;-65
2021/01/18 11:22:56;;;;;;;5.10;4.60;;;6.20;46.40;;;;;;5031255;28;20424;-65
2021/01/18 11:25:22;;;;;;;6.50;5.00;;;6.30;45.80;;;;;;5030506;28;21078;-65
2021/01/18 11:27:48;;;;;;;5.50;5.00;;;6.30;46.00;;;;;;5030164;28;20501;-65
2021/01/18 11:30:14;;;;;;;5.73;4.73;;;6.50;45.70;;;;;;5029064;28;20426;-65
2021/01/18 11:32:41;;;;;;;5.30;4.80;;;6.60;45.00;;;;;;5030147;28;20442;-65
2021/01/18 11:35:09;;;;;;;4.73;4.33;;;6.50;45.30;;;;;;5030401;28;20433;-66
2021/01/18 11:37:35;;;;;;;5.77;5.20;;;6.50;44.30;;;;;;5030088;28;20464;-66
2021/01/18 11:40:10;;;;;;;18.43;8.80;;;6.50;45.90;;;;;;5030252;28;20501;-66
2021/01/18 11:42:36;;;;;;;8.90;6.80;;;6.60;44.70;;;;;;5030364;28;20406;-65
2021/01/18 11:45:04;;;;;;;6.20;5.03;;;6.70;44.10;;;;;;5030203;28;20822;-66
2021/01/18 11:47:40;;;;;;;5.37;4.80;;;6.90;43.70;;;;;;5030178;28;20415;-66
2021/01/18 11:50:07;;;;;;;4.97;4.57;;;6.90;42.50;;;;;;5030275;28;20407;-66
2021/01/18 11:52:40;;;;;;;5.40;4.83;;;6.80;44.00;;;;;;5029967;28;20418;-66
2021/01/18 11:55:07;;;;;;;4.03;3.73;;;6.80;42.70;;;;;;5030376;28;20483;-66
2021/01/18 11:57:32;;;;;;;4.83;4.40;;;6.90;42.50;;;;;;5029642;28;20418;-66
2021/01/18 11:59:58;;;;;;;4.20;3.80;;;6.80;43.00;;;;;;5029640;28;20982;-66
2021/01/18 12:02:23;;;;;;;4.73;3.90;;;6.80;42.60;;;;;;5020965;28;20172;-64
2021/01/18 12:04:48;;;;;;;6.13;4.57;;;6.70;43.00;;;;;;5019534;28;20211;-65
2021/01/18 12:07:14;;;;;;;4.93;4.50;;;6.90;43.20;;;;;;5019236;28;20247;-66
2021/01/18 12:09:40;;;;;;;4.30;4.00;;;6.70;42.70;;;;;;5021062;28;20166;-65
2021/01/18 12:12:06;;;;;;;4.90;4.27;;;6.80;43.10;;;;;;5018627;28;20180;-65
2021/01/18 12:14:31;;;;;;;5.90;4.20;;;6.80;43.40;;;;;;5017257;28;21055;-65
2021/01/18 12:17:02;;;;;;;4.70;4.30;;;7.00;43.50;;;;;;5025339;28;20824;-66
2021/01/18 12:19:27;;;;;;;4.33;4.03;;;6.90;42.10;;;;;;5017769;28;20190;-65
2021/01/18 12:21:53;;;;;;;7.40;4.20;;;7.00;43.60;;;;;;5019683;28;20814;-65
2021/01/18 12:24:19;;;;;;;4.90;4.50;;;6.80;43.20;;;;;;4991889;28;533930;-64
2021/01/18 12:26:48;;;;;;;7.73;4.50;;;7.00;42.80;;;;;;5010608;28;20212;-64
2021/01/18 12:29:14;;;;;;;4.10;3.80;;;7.20;42.80;;;;;;5010735;28;20176;-65
2021/01/18 12:31:39;;;;;;;4.97;4.57;;;7.30;42.20;;;;;;5010842;28;20518;-65
2021/01/18 12:34:05;;;;;;;5.03;4.63;;;6.80;42.50;;;;;;5010733;28;20534;-66
2021/01/18 12:36:30;;;;;;;6.60;5.23;;;7.00;43.20;;;;;;5028921;28;20908;-66
2021/01/18 12:38:56;;;;;;;4.97;4.17;;;7.00;43.50;;;;;;5030165;28;20180;-65
2021/01/18 12:41:21;;;;;;;5.23;4.73;;;7.10;43.40;;;;;;5030238;28;20180;-65
2021/01/18 12:43:47;;;;;;;7.83;4.60;;;7.10;43.30;;;;;;5030357;28;20203;-64
2021/01/18 12:46:17;;;;;;;4.23;3.70;;;7.10;43.10;;;;;;5030288;28;20193;-65
2021/01/18 12:48:43;;;;;;;4.97;4.30;;;7.10;41.30;;;;;;5030263;28;20673;-65
2021/01/18 12:51:12;;;;;;;6.20;3.20;;;7.00;42.20;;;;;;5030138;28;20406;-63
2021/01/18 12:53:44;;;;;;;4.20;3.90;;;7.00;42.20;;;;;;5030211;28;20172;-65
2021/01/18 12:56:21;;;;;;;4.20;3.87;;;7.00;43.20;;;;;;5020894;28;20432;-66
2021/01/18 12:58:46;;;;;;;4.10;3.80;;;7.10;42.10;;;;;;5018374;28;20420;-65
2021/01/18 13:01:12;;;;;;;4.90;3.40;;;7.30;41.30;;;;;;5018892;28;20465;-66
2021/01/18 13:03:38;;;;;;;4.17;3.70;;;7.20;41.30;;;;;;5020150;28;20198;-65
2021/01/18 13:06:03;;;;;;;3.70;3.27;;;7.20;41.90;;;;;;5017966;28;20220;-67
2021/01/18 13:08:29;;;;;;;3.10;2.90;;;7.40;41.60;;;;;;5019330;28;20604;-66
2021/01/18 13:11:05;;;;;;;3.67;3.30;;;7.40;40.50;;;;;;5019618;28;20304;-66
2021/01/18 13:13:30;;;;;;;27.87;19.60;;;7.40;39.60;;;;;;5018897;28;20173;-67